createdAt,value
2017-07-11T00:00:37.839Z,18.77
2017-07-11T00:01:18.399Z,18.74
2017-07-11T00:01:58.973Z,18.7
2017-07-11T00:02:39.569Z,18.71
2017-07-11T00:03:20.144Z,18.7
2017-07-11T00:04:00.735Z,18.74
2017-07-11T00:04:41.335Z,18.73
2017-07-11T00:05:21.924Z,18.68
2017-07-11T00:06:02.511Z,18.66
2017-07-11T00:06:43.095Z,18.68
2017-07-11T00:07:23.672Z,18.65
2017-07-11T00:08:04.244Z,18.66
2017-07-11T00:08:44.859Z,18.66
2017-07-11T00:09:25.450Z,18.59
2017-07-11T00:10:06.057Z,18.59
2017-07-11T00:10:46.647Z,18.59
2017-07-11T00:11:27.248Z,18.6
2017-07-11T00:12:07.817Z,18.59
2017-07-11T00:12:48.452Z,18.58
2017-07-11T00:13:29.168Z,18.59
2017-07-11T00:14:09.748Z,18.59
2017-07-11T00:14:50.326Z,18.56
2017-07-11T00:15:30.930Z,18.53
2017-07-11T00:16:11.511Z,18.56
2017-07-11T00:16:52.100Z,18.53
2017-07-11T00:17:32.679Z,18.47
2017-07-11T00:18:13.248Z,18.49
2017-07-11T00:18:53.831Z,18.55
2017-07-11T00:19:34.404Z,18.52
2017-07-11T00:20:14.983Z,18.47
2017-07-11T00:20:55.555Z,18.45
2017-07-11T00:21:36.145Z,18.4
2017-07-11T00:22:16.732Z,18.43
2017-07-11T00:22:57.317Z,18.41
2017-07-11T00:23:37.889Z,18.4
2017-07-11T00:24:18.467Z,18.43
2017-07-11T00:24:59.028Z,18.44
2017-07-11T00:25:39.593Z,18.4
2017-07-11T00:26:20.210Z,18.44
2017-07-11T00:27:00.786Z,18.44
2017-07-11T00:27:41.349Z,18.45
2017-07-11T00:28:21.927Z,18.44
2017-07-11T00:29:02.485Z,18.41
2017-07-11T00:29:43.052Z,18.4
2017-07-11T00:30:23.625Z,18.4
2017-07-11T00:31:04.284Z,18.45
2017-07-11T00:31:44.866Z,18.43
2017-07-11T00:32:31.935Z,18.34
2017-07-11T00:33:12.517Z,18.35
2017-07-11T00:33:53.095Z,18.44
2017-07-11T00:34:33.695Z,18.4
2017-07-11T00:35:14.287Z,18.4
2017-07-11T00:35:54.859Z,18.34
2017-07-11T00:36:35.462Z,18.44
2017-07-11T00:37:16.039Z,18.34
2017-07-11T00:37:56.600Z,18.33
2017-07-11T00:38:37.172Z,18.29
2017-07-11T00:39:17.738Z,18.29
2017-07-11T00:39:58.310Z,18.34
2017-07-11T00:40:38.909Z,18.34
2017-07-11T00:41:19.479Z,18.37
2017-07-11T00:42:00.066Z,18.34
2017-07-11T00:42:40.640Z,18.38
2017-07-11T00:43:21.217Z,18.37
2017-07-11T00:44:01.801Z,18.37
2017-07-11T00:44:42.378Z,18.34
2017-07-11T00:45:22.967Z,18.34
2017-07-11T00:46:03.531Z,18.33
2017-07-11T00:46:44.116Z,18.31
2017-07-11T00:47:24.699Z,18.33
2017-07-11T00:48:05.305Z,18.37
2017-07-11T00:48:45.913Z,18.31
2017-07-11T00:49:26.489Z,18.31
2017-07-11T00:50:07.070Z,18.29
2017-07-11T00:50:47.640Z,18.29
2017-07-11T00:51:28.203Z,18.29
2017-07-11T00:52:08.792Z,18.26
2017-07-11T00:52:49.364Z,18.31
2017-07-11T00:53:29.936Z,18.34
2017-07-11T00:54:10.570Z,18.38
2017-07-11T00:54:51.113Z,18.38
2017-07-11T00:55:31.685Z,18.28
2017-07-11T00:56:12.247Z,18.33
2017-07-11T00:56:52.831Z,18.34
2017-07-11T00:57:33.409Z,18.34
2017-07-11T00:58:13.970Z,18.37
2017-07-11T00:58:54.546Z,18.33
2017-07-11T00:59:35.179Z,18.29
2017-07-11T01:00:15.729Z,18.33
2017-07-11T01:00:56.320Z,18.35
2017-07-11T01:01:36.911Z,18.37
2017-07-11T01:02:17.487Z,18.37
2017-07-11T01:02:58.046Z,18.4
2017-07-11T01:03:38.614Z,18.41
2017-07-11T01:04:19.201Z,18.35
2017-07-11T01:04:59.809Z,18.28
2017-07-11T01:05:40.390Z,18.37
2017-07-11T01:06:20.966Z,18.34
2017-07-11T01:07:01.537Z,18.29
2017-07-11T01:07:42.151Z,18.23
2017-07-11T01:08:22.721Z,18.33
2017-07-11T01:09:03.330Z,18.28
2017-07-11T01:09:43.905Z,18.34
2017-07-11T01:10:24.489Z,18.33
2017-07-11T01:11:05.080Z,18.35
2017-07-11T01:11:45.651Z,18.31
2017-07-11T01:12:26.248Z,18.34
2017-07-11T01:13:06.817Z,18.34
2017-07-11T01:13:47.391Z,18.31
2017-07-11T01:14:28.005Z,18.34
2017-07-11T01:15:08.585Z,18.33
2017-07-11T01:15:49.168Z,18.26
2017-07-11T01:16:29.734Z,18.26
2017-07-11T01:17:10.367Z,18.29
2017-07-11T01:17:50.959Z,18.31
2017-07-11T01:18:31.551Z,18.37
2017-07-11T01:19:12.138Z,18.28
2017-07-11T01:19:52.712Z,18.31
2017-07-11T01:20:33.312Z,18.31
2017-07-11T01:21:13.902Z,18.31
2017-07-11T01:21:54.475Z,18.29
2017-07-11T01:22:35.052Z,18.37
2017-07-11T01:23:15.631Z,18.33
2017-07-11T01:23:56.207Z,18.4
2017-07-11T01:24:36.811Z,18.26
2017-07-11T01:25:17.429Z,18.23
2017-07-11T01:25:58.014Z,18.26
2017-07-11T01:26:38.585Z,18.29
2017-07-11T01:27:19.201Z,18.31
2017-07-11T01:27:59.775Z,18.31
2017-07-11T01:28:40.350Z,18.29
2017-07-11T01:29:20.912Z,18.31
2017-07-11T01:30:01.505Z,18.26
2017-07-11T01:30:42.099Z,18.23
2017-07-11T01:31:22.699Z,18.26
2017-07-11T01:32:03.291Z,18.22
2017-07-11T01:32:43.912Z,18.26
2017-07-11T01:33:24.508Z,18.26
2017-07-11T01:34:05.076Z,18.28
2017-07-11T01:34:45.686Z,18.19
2017-07-11T01:35:26.276Z,18.19
2017-07-11T01:36:06.891Z,18.28
2017-07-11T01:36:47.457Z,18.19
2017-07-11T01:37:28.118Z,18.16
2017-07-11T01:38:08.722Z,18.16
2017-07-11T01:38:49.375Z,18.22
2017-07-11T01:39:29.967Z,18.11
2017-07-11T01:40:10.615Z,18.15
2017-07-11T01:40:51.191Z,18.23
2017-07-11T01:41:31.778Z,18.2
2017-07-11T01:42:12.433Z,18.15
2017-07-11T01:42:53.023Z,18.2
2017-07-11T01:43:33.601Z,18.16
2017-07-11T01:44:14.167Z,18.18
2017-07-11T01:44:54.749Z,18.18
2017-07-11T01:45:35.328Z,18.2
2017-07-11T01:46:15.905Z,18.16
2017-07-11T01:46:56.500Z,18.08
2017-07-11T01:47:37.114Z,18.11
2017-07-11T01:48:17.694Z,18.15
2017-07-11T01:48:58.285Z,18.11
2017-07-11T01:49:38.866Z,18.13
2017-07-11T01:50:19.451Z,18.1
2017-07-11T01:51:00.042Z,18.1
2017-07-11T01:51:40.626Z,18.04
2017-07-11T01:52:21.197Z,18.04
2017-07-11T01:53:01.780Z,18.01
2017-07-11T01:53:42.366Z,18.03
2017-07-11T01:54:22.945Z,18.04
2017-07-11T01:55:03.526Z,18
2017-07-11T01:55:44.122Z,17.97
2017-07-11T01:56:24.734Z,17.95
2017-07-11T01:57:05.333Z,17.94
2017-07-11T01:57:45.916Z,17.89
2017-07-11T01:58:26.528Z,17.95
2017-07-11T01:59:07.096Z,17.95
2017-07-11T01:59:47.671Z,17.86
2017-07-11T02:00:28.281Z,17.95
2017-07-11T02:01:08.870Z,17.87
2017-07-11T02:01:49.460Z,17.89
2017-07-11T02:02:30.043Z,17.86
2017-07-11T02:03:10.620Z,17.82
2017-07-11T02:03:51.210Z,17.94
2017-07-11T02:04:31.787Z,17.89
2017-07-11T02:05:12.345Z,17.86
2017-07-11T02:05:52.911Z,17.78
2017-07-11T02:06:33.502Z,17.82
2017-07-11T02:07:14.067Z,17.83
2017-07-11T02:07:54.643Z,17.87
2017-07-11T02:08:35.220Z,17.78
2017-07-11T02:09:15.804Z,17.87
2017-07-11T02:09:56.368Z,17.89
2017-07-11T02:10:36.957Z,17.76
2017-07-11T02:11:17.527Z,17.92
2017-07-11T02:11:58.113Z,17.76
2017-07-11T02:12:38.709Z,17.87
2017-07-11T02:13:19.287Z,17.78
2017-07-11T02:13:59.880Z,17.85
2017-07-11T02:14:40.445Z,17.8
2017-07-11T02:15:21.017Z,17.79
2017-07-11T02:16:01.990Z,17.78
2017-07-11T02:16:42.577Z,17.78
2017-07-11T02:17:23.150Z,17.8
2017-07-11T02:18:03.730Z,17.8
2017-07-11T02:18:44.314Z,17.8
2017-07-11T02:19:24.938Z,17.8
2017-07-11T02:20:05.498Z,17.82
2017-07-11T02:20:46.066Z,17.7
2017-07-11T02:21:26.664Z,17.72
2017-07-11T02:22:07.250Z,17.72
2017-07-11T02:22:47.820Z,17.79
2017-07-11T02:23:28.388Z,17.74
2017-07-11T02:24:08.961Z,17.72
2017-07-11T02:24:49.534Z,17.71
2017-07-11T02:25:30.103Z,17.74
2017-07-11T02:26:10.675Z,17.7
2017-07-11T02:26:51.272Z,17.74
2017-07-11T02:27:31.964Z,17.72
2017-07-11T02:28:12.536Z,17.78
2017-07-11T02:28:53.293Z,17.68
2017-07-11T02:29:33.872Z,17.72
2017-07-11T02:30:14.453Z,17.64
2017-07-11T02:30:55.028Z,17.68
2017-07-11T02:31:35.731Z,17.59
2017-07-11T02:32:16.361Z,17.52
2017-07-11T02:32:56.946Z,17.57
2017-07-11T02:33:37.683Z,17.56
2017-07-11T02:34:18.302Z,17.67
2017-07-11T02:34:58.874Z,17.64
2017-07-11T02:35:39.522Z,17.51
2017-07-11T02:36:20.092Z,17.71
2017-07-11T02:37:00.679Z,17.56
2017-07-11T02:37:41.263Z,17.51
2017-07-11T02:38:21.860Z,17.71
2017-07-11T02:39:02.866Z,17.68
2017-07-11T02:39:43.444Z,17.59
2017-07-11T02:40:24.014Z,17.57
2017-07-11T02:41:04.572Z,17.65
2017-07-11T02:41:45.135Z,17.63
2017-07-11T02:42:25.730Z,17.64
2017-07-11T02:43:06.299Z,17.56
2017-07-11T02:43:47.024Z,17.6
2017-07-11T02:44:27.595Z,17.63
2017-07-11T02:45:08.180Z,17.56
2017-07-11T02:45:48.762Z,17.57
2017-07-11T02:46:29.337Z,17.68
2017-07-11T02:47:09.916Z,17.63
2017-07-11T02:47:50.499Z,17.6
2017-07-11T02:48:31.084Z,17.51
2017-07-11T02:49:12.062Z,17.45
2017-07-11T02:49:52.681Z,17.44
2017-07-11T02:50:33.312Z,17.49
2017-07-11T02:51:13.885Z,17.42
2017-07-11T02:51:54.454Z,17.46
2017-07-11T02:52:35.028Z,17.36
2017-07-11T02:53:15.622Z,17.36
2017-07-11T02:53:56.203Z,17.29
2017-07-11T02:54:36.795Z,17.33
2017-07-11T02:55:17.366Z,17.23
2017-07-11T02:55:58.098Z,17.23
2017-07-11T02:56:38.775Z,17.26
2017-07-11T02:57:19.358Z,17.22
2017-07-11T02:57:59.957Z,17.15
2017-07-11T02:58:40.535Z,17.15
2017-07-11T02:59:21.106Z,17.12
2017-07-11T03:00:01.717Z,17.06
2017-07-11T03:00:42.298Z,17.2
2017-07-11T03:01:22.889Z,17.06
2017-07-11T03:02:03.455Z,17.09
2017-07-11T03:02:44.038Z,17.02
2017-07-11T03:03:24.610Z,17.11
2017-07-11T03:04:05.183Z,17.02
2017-07-11T03:04:45.763Z,17.12
2017-07-11T03:05:26.323Z,17.08
2017-07-11T03:06:06.918Z,17.02
2017-07-11T03:06:47.493Z,17.05
2017-07-11T03:07:28.068Z,16.99
2017-07-11T03:08:08.639Z,17.02
2017-07-11T03:08:49.208Z,17.05
2017-07-11T03:09:29.797Z,17.01
2017-07-11T03:10:10.395Z,17.01
2017-07-11T03:10:50.965Z,16.97
2017-07-11T03:11:31.556Z,16.96
2017-07-11T03:12:12.445Z,16.9
2017-07-11T03:12:52.978Z,16.84
2017-07-11T03:13:33.548Z,16.84
2017-07-11T03:14:14.125Z,16.99
2017-07-11T03:14:54.703Z,16.86
2017-07-11T03:15:35.266Z,16.89
2017-07-11T03:16:15.858Z,16.83
2017-07-11T03:16:56.414Z,16.93
2017-07-11T03:17:36.963Z,16.91
2017-07-11T03:18:17.571Z,16.87
2017-07-11T03:18:58.489Z,16.89
2017-07-11T03:19:39.057Z,16.91
2017-07-11T03:20:19.711Z,16.89
2017-07-11T03:21:00.321Z,16.83
2017-07-11T03:21:40.901Z,16.9
2017-07-11T03:22:21.481Z,16.93
2017-07-11T03:23:02.039Z,16.91
2017-07-11T03:23:42.612Z,16.89
2017-07-11T03:24:23.195Z,16.86
2017-07-11T03:25:03.777Z,16.91
2017-07-11T03:25:44.362Z,16.83
2017-07-11T03:26:24.956Z,16.78
2017-07-11T03:27:05.511Z,16.84
2017-07-11T03:27:46.083Z,16.76
2017-07-11T03:28:26.701Z,16.83
2017-07-11T03:29:07.264Z,16.79
2017-07-11T03:29:47.939Z,16.9
2017-07-11T03:30:28.559Z,16.83
2017-07-11T03:31:09.138Z,16.86
2017-07-11T03:31:49.723Z,16.9
2017-07-11T03:32:30.296Z,16.81
2017-07-11T03:33:10.872Z,16.84
2017-07-11T03:33:51.448Z,16.9
2017-07-11T03:34:32.085Z,16.83
2017-07-11T03:35:12.617Z,16.86
2017-07-11T03:35:53.209Z,16.93
2017-07-11T03:36:33.769Z,16.86
2017-07-11T03:37:14.350Z,16.87
2017-07-11T03:37:54.916Z,16.86
2017-07-11T03:38:35.483Z,16.89
2017-07-11T03:39:16.083Z,16.9
2017-07-11T03:39:56.694Z,16.87
2017-07-11T03:40:37.265Z,16.94
2017-07-11T03:41:17.884Z,16.87
2017-07-11T03:41:58.492Z,16.96
2017-07-11T03:42:39.061Z,16.9
2017-07-11T03:43:19.683Z,16.9
2017-07-11T03:44:00.252Z,16.93
2017-07-11T03:44:40.818Z,16.9
2017-07-11T03:45:21.374Z,16.93
2017-07-11T03:46:01.940Z,16.99
2017-07-11T03:46:42.510Z,16.94
2017-07-11T03:47:23.086Z,16.93
2017-07-11T03:48:03.656Z,16.96
2017-07-11T03:48:44.298Z,16.93
2017-07-11T03:49:24.827Z,17.02
2017-07-11T03:50:05.413Z,16.99
2017-07-11T03:50:45.970Z,16.89
2017-07-11T03:51:26.540Z,16.96
2017-07-11T03:52:07.115Z,16.96
2017-07-11T03:52:47.687Z,17.02
2017-07-11T03:53:28.277Z,17.01
2017-07-11T03:54:08.844Z,17.02
2017-07-11T03:54:49.408Z,16.97
2017-07-11T03:55:29.983Z,16.99
2017-07-11T03:56:10.528Z,16.97
2017-07-11T03:56:51.112Z,16.96
2017-07-11T03:57:31.723Z,16.99
2017-07-11T03:58:12.297Z,17.02
2017-07-11T03:58:52.994Z,17.02
2017-07-11T03:59:33.562Z,17.04
2017-07-11T04:00:14.142Z,17.04
2017-07-11T04:00:54.771Z,17.02
2017-07-11T04:01:35.338Z,17.06
2017-07-11T04:02:15.899Z,17.11
2017-07-11T04:02:56.489Z,17.04
2017-07-11T04:03:37.208Z,17.01
2017-07-11T04:04:17.725Z,17.06
2017-07-11T04:04:58.321Z,17.06
2017-07-11T04:05:38.895Z,17.05
2017-07-11T04:06:19.496Z,17.08
2017-07-11T04:07:00.146Z,17.05
2017-07-11T04:07:40.707Z,17.09
2017-07-11T04:08:21.273Z,17.09
2017-07-11T04:09:01.845Z,17.02
2017-07-11T04:09:42.520Z,17.16
2017-07-11T04:10:23.095Z,17.08
2017-07-11T04:11:03.662Z,17.11
2017-07-11T04:11:44.235Z,17.12
2017-07-11T04:12:24.830Z,17.16
2017-07-11T04:13:05.421Z,17.08
2017-07-11T04:13:45.974Z,17.16
2017-07-11T04:14:26.651Z,17.23
2017-07-11T04:15:07.292Z,17.14
2017-07-11T04:15:47.883Z,17.24
2017-07-11T04:16:28.453Z,17.19
2017-07-11T04:17:09.040Z,17.22
2017-07-11T04:17:49.624Z,17.2
2017-07-11T04:18:30.214Z,17.16
2017-07-11T04:19:10.762Z,17.2
2017-07-11T04:19:51.311Z,17.23
2017-07-11T04:20:31.884Z,17.16
2017-07-11T04:21:12.453Z,17.19
2017-07-11T04:21:53.060Z,17.26
2017-07-11T04:22:33.631Z,17.23
2017-07-11T04:23:14.287Z,17.23
2017-07-11T04:23:54.859Z,17.23
2017-07-11T04:24:35.447Z,17.22
2017-07-11T04:25:16.009Z,17.26
2017-07-11T04:25:56.572Z,17.24
2017-07-11T04:26:37.144Z,17.22
2017-07-11T04:27:17.848Z,17.22
2017-07-11T04:27:58.430Z,17.22
2017-07-11T04:28:39.013Z,17.24
2017-07-11T04:29:19.577Z,17.26
2017-07-11T04:30:00.143Z,17.2
2017-07-11T04:30:40.712Z,17.16
2017-07-11T04:31:21.291Z,17.19
2017-07-11T04:32:01.850Z,17.29
2017-07-11T04:32:42.429Z,17.24
2017-07-11T04:33:22.994Z,17.27
2017-07-11T04:34:03.563Z,17.29
2017-07-11T04:34:44.137Z,17.39
2017-07-11T04:35:24.863Z,17.27
2017-07-11T04:36:05.354Z,17.33
2017-07-11T04:36:45.930Z,17.39
2017-07-11T04:37:26.516Z,17.31
2017-07-11T04:38:07.083Z,17.34
2017-07-11T04:38:47.642Z,17.34
2017-07-11T04:39:29.155Z,17.33
2017-07-11T04:40:09.726Z,17.34
2017-07-11T04:40:50.306Z,17.31
2017-07-11T04:41:30.886Z,17.34
2017-07-11T04:42:11.561Z,17.39
2017-07-11T04:42:52.120Z,17.34
2017-07-11T04:43:32.686Z,17.3
2017-07-11T04:44:13.259Z,17.36
2017-07-11T04:44:53.829Z,17.33
2017-07-11T04:45:34.416Z,17.34
2017-07-11T04:46:15.017Z,17.39
2017-07-11T04:46:55.586Z,17.31
2017-07-11T04:47:36.150Z,17.34
2017-07-11T04:48:16.720Z,17.36
2017-07-11T04:48:57.304Z,17.39
2017-07-11T04:49:37.895Z,17.33
2017-07-11T04:50:18.464Z,17.33
2017-07-11T04:50:59.077Z,17.34
2017-07-11T04:51:39.646Z,17.34
2017-07-11T04:52:20.250Z,17.38
2017-07-11T04:53:00.806Z,17.34
2017-07-11T04:53:41.412Z,17.34
2017-07-11T04:54:21.982Z,17.3
2017-07-11T04:55:02.546Z,17.31
2017-07-11T04:55:43.125Z,17.31
2017-07-11T04:56:23.702Z,17.34
2017-07-11T04:57:04.268Z,17.33
2017-07-11T04:57:44.844Z,17.34
2017-07-11T04:58:25.480Z,17.33
2017-07-11T04:59:06.047Z,17.38
2017-07-11T04:59:46.625Z,17.31
2017-07-11T05:00:27.277Z,17.45
2017-07-11T05:01:07.977Z,17.34
2017-07-11T05:01:48.554Z,17.38
2017-07-11T05:02:29.112Z,17.39
2017-07-11T05:03:09.722Z,17.41
2017-07-11T05:03:50.355Z,17.39
2017-07-11T05:04:30.926Z,17.44
2017-07-11T05:05:11.579Z,17.42
2017-07-11T05:05:52.150Z,17.51
2017-07-11T05:06:32.716Z,17.42
2017-07-11T05:07:13.305Z,17.46
2017-07-11T05:07:53.879Z,17.44
2017-07-11T05:08:34.478Z,17.46
2017-07-11T05:09:15.062Z,17.46
2017-07-11T05:09:55.648Z,17.45
2017-07-11T05:10:36.215Z,17.49
2017-07-11T05:12:34.171Z,17.48
2017-07-11T05:13:14.745Z,17.48
2017-07-11T05:13:55.412Z,17.57
2017-07-11T05:14:35.918Z,17.46
2017-07-11T05:15:16.492Z,17.49
2017-07-11T05:15:57.064Z,17.51
2017-07-11T05:16:37.625Z,17.48
2017-07-11T05:17:18.203Z,17.56
2017-07-11T05:17:58.771Z,17.54
2017-07-11T05:18:39.404Z,17.63
2017-07-11T05:19:20.085Z,17.51
2017-07-11T05:20:00.954Z,17.57
2017-07-11T05:20:41.538Z,17.68
2017-07-11T05:21:22.127Z,17.63
2017-07-11T05:22:02.718Z,17.63
2017-07-11T05:22:43.297Z,17.6
2017-07-11T05:23:23.873Z,17.65
2017-07-11T05:24:04.446Z,17.63
2017-07-11T05:24:45.022Z,17.63
2017-07-11T05:25:25.609Z,17.57
2017-07-11T05:26:06.174Z,17.7
2017-07-11T05:26:46.728Z,17.68
2017-07-11T05:27:27.286Z,17.76
2017-07-11T05:28:07.872Z,17.72
2017-07-11T05:28:48.434Z,17.74
2017-07-11T05:29:29.009Z,17.87
2017-07-11T05:30:09.577Z,17.79
2017-07-11T05:30:50.158Z,17.83
2017-07-11T05:31:30.731Z,17.95
2017-07-11T05:32:11.314Z,17.95
2017-07-11T05:32:51.892Z,18.01
2017-07-11T05:33:32.461Z,18.03
2017-07-11T05:34:13.046Z,18.15
2017-07-11T05:34:53.649Z,18.1
2017-07-11T05:35:34.289Z,18.19
2017-07-11T05:36:14.865Z,18.15
2017-07-11T05:36:55.446Z,18.16
2017-07-11T05:37:36.042Z,18.15
2017-07-11T05:38:16.658Z,18.18
2017-07-11T05:38:57.232Z,18.13
2017-07-11T05:39:37.816Z,18.13
2017-07-11T05:40:18.397Z,18.13
2017-07-11T05:40:58.964Z,18
2017-07-11T05:41:39.537Z,18.01
2017-07-11T05:42:20.148Z,17.98
2017-07-11T05:43:00.726Z,17.97
2017-07-11T05:43:41.355Z,17.94
2017-07-11T05:44:21.924Z,17.9
2017-07-11T05:45:02.499Z,17.89
2017-07-11T05:45:43.047Z,17.9
2017-07-11T05:46:23.622Z,17.83
2017-07-11T05:47:04.193Z,17.85
2017-07-11T05:47:44.763Z,17.78
2017-07-11T05:48:25.331Z,17.72
2017-07-11T05:49:05.937Z,17.79
2017-07-11T05:49:46.491Z,17.72
2017-07-11T05:50:27.068Z,17.87
2017-07-11T05:51:07.636Z,17.89
2017-07-11T05:51:48.261Z,17.95
2017-07-11T05:52:28.844Z,17.97
2017-07-11T05:53:09.458Z,18.01
2017-07-11T05:53:50.047Z,18.01
2017-07-11T05:54:30.697Z,18.04
2017-07-11T05:55:11.286Z,18.07
2017-07-11T05:55:51.890Z,18.04
2017-07-11T05:56:32.603Z,18.18
2017-07-11T05:57:13.309Z,18.16
2017-07-11T05:57:53.886Z,18.23
2017-07-11T05:58:34.464Z,18.29
2017-07-11T05:59:15.036Z,18.41
2017-07-11T05:59:55.896Z,18.43
2017-07-11T06:00:37.640Z,18.45
2017-07-11T06:01:18.703Z,18.45
2017-07-11T06:01:59.361Z,18.55
2017-07-11T06:02:39.950Z,18.53
2017-07-11T06:03:20.562Z,18.56
2017-07-11T06:04:01.271Z,18.53
2017-07-11T06:04:41.873Z,18.53
2017-07-11T06:05:22.453Z,18.49
2017-07-11T06:06:04.276Z,18.47
2017-07-11T06:06:44.489Z,18.63
2017-07-11T06:07:25.206Z,18.68
2017-07-11T06:08:05.904Z,18.73
2017-07-11T06:08:46.525Z,18.8
2017-07-11T06:09:27.114Z,18.81
2017-07-11T06:10:07.726Z,18.81
2017-07-11T06:10:48.329Z,18.92
2017-07-11T06:11:28.913Z,18.95
2017-07-11T06:12:09.485Z,19.07
2017-07-11T06:12:50.087Z,19.04
2017-07-11T06:13:31.427Z,19.14
2017-07-11T06:14:12.032Z,19.19
2017-07-11T06:14:52.602Z,19.27
2017-07-11T06:15:33.191Z,19.16
2017-07-11T06:16:13.931Z,19.19
2017-07-11T06:16:54.561Z,19.26
2017-07-11T06:17:35.136Z,19.27
2017-07-11T06:18:15.751Z,19.18
2017-07-11T06:18:56.350Z,19.21
2017-07-11T06:19:36.943Z,19.22
2017-07-11T06:20:17.537Z,19.21
2017-07-11T06:20:58.106Z,19.19
2017-07-11T06:21:38.677Z,19.19
2017-07-11T06:22:19.279Z,19.14
2017-07-11T06:22:59.867Z,19.14
2017-07-11T06:23:40.498Z,19
2017-07-11T06:24:21.096Z,19.15
2017-07-11T06:25:01.661Z,19.11
2017-07-11T06:25:42.229Z,19.11
2017-07-11T06:26:22.819Z,19.08
2017-07-11T06:27:03.404Z,18.99
2017-07-11T06:27:43.976Z,19.08
2017-07-11T06:28:24.561Z,19.02
2017-07-11T06:29:05.133Z,19.14
2017-07-11T06:29:45.724Z,19.15
2017-07-11T06:30:26.341Z,19.14
2017-07-11T06:31:06.959Z,19.18
2017-07-11T06:31:47.533Z,19.31
2017-07-11T06:32:28.229Z,19.3
2017-07-11T06:33:08.824Z,19.36
2017-07-11T06:33:49.416Z,19.37
2017-07-11T06:34:29.983Z,19.45
2017-07-11T06:35:10.604Z,19.48
2017-07-11T06:35:51.188Z,19.56
2017-07-11T06:36:31.767Z,19.64
2017-07-11T06:37:12.369Z,19.7
2017-07-11T06:37:52.935Z,19.79
2017-07-11T06:38:33.505Z,19.81
2017-07-11T06:39:14.081Z,19.84
2017-07-11T06:39:54.697Z,19.91
2017-07-11T06:40:35.278Z,20.03
2017-07-11T06:41:15.849Z,19.99
2017-07-11T06:41:56.417Z,19.88
2017-07-11T06:42:36.996Z,19.79
2017-07-11T06:43:17.631Z,19.79
2017-07-11T06:43:58.224Z,19.7
2017-07-11T06:44:38.807Z,19.86
2017-07-11T06:45:19.376Z,19.73
2017-07-11T06:45:59.949Z,19.77
2017-07-11T06:46:40.558Z,19.88
2017-07-11T06:47:21.134Z,19.94
2017-07-11T06:48:01.738Z,19.92
2017-07-11T06:48:42.358Z,19.89
2017-07-11T06:49:23.027Z,19.95
2017-07-11T06:50:03.632Z,20.06
2017-07-11T06:50:44.216Z,20.04
2017-07-11T06:51:24.801Z,20.11
2017-07-11T06:52:05.395Z,20.11
2017-07-11T06:52:45.989Z,20.1
2017-07-11T06:53:26.557Z,20.18
2017-07-11T06:54:07.139Z,20.29
2017-07-11T06:54:47.718Z,20.16
2017-07-11T06:55:28.313Z,20.24
2017-07-11T06:56:08.883Z,20.25
2017-07-11T06:56:49.516Z,20.25
2017-07-11T06:57:30.107Z,20.24
2017-07-11T06:58:10.698Z,20.29
2017-07-11T06:58:51.317Z,20.29
2017-07-11T06:59:31.904Z,20.26
2017-07-11T07:00:12.495Z,20.39
2017-07-11T07:00:53.062Z,20.26
2017-07-11T07:01:33.636Z,20.29
2017-07-11T07:02:14.225Z,20.28
2017-07-11T07:02:54.810Z,20.47
2017-07-11T07:03:35.387Z,20.51
2017-07-11T07:04:15.962Z,20.48
2017-07-11T07:04:56.531Z,20.56
2017-07-11T07:05:37.226Z,20.62
2017-07-11T07:06:17.717Z,20.59
2017-07-11T07:06:58.466Z,20.67
2017-07-11T07:07:39.058Z,20.67
2017-07-11T07:08:19.641Z,20.66
2017-07-11T07:09:00.220Z,20.74
2017-07-11T07:09:40.802Z,20.7
2017-07-11T07:10:21.389Z,20.69
2017-07-11T07:11:02.026Z,20.66
2017-07-11T07:11:42.592Z,20.67
2017-07-11T07:12:23.182Z,20.63
2017-07-11T07:13:03.746Z,20.66
2017-07-11T07:13:44.328Z,20.56
2017-07-11T07:14:24.947Z,20.56
2017-07-11T07:15:05.538Z,20.58
2017-07-11T07:15:46.117Z,20.56
2017-07-11T07:16:26.708Z,20.69
2017-07-11T07:17:07.290Z,20.74
2017-07-11T07:17:47.875Z,20.75
2017-07-11T07:18:28.439Z,20.84
2017-07-11T07:19:09.015Z,20.9
2017-07-11T07:19:49.596Z,20.96
2017-07-11T07:20:30.162Z,21.03
2017-07-11T07:21:10.778Z,21.03
2017-07-11T07:21:51.358Z,21.03
2017-07-11T07:22:31.934Z,21.06
2017-07-11T07:23:12.956Z,21.09
2017-07-11T07:23:53.539Z,21.12
2017-07-11T07:24:34.114Z,21.21
2017-07-11T07:25:14.689Z,21.3
2017-07-11T07:25:55.277Z,21.39
2017-07-11T07:26:35.837Z,21.48
2017-07-11T07:27:16.587Z,21.67
2017-07-11T07:27:57.208Z,21.6
2017-07-11T07:28:37.820Z,21.73
2017-07-11T07:29:18.405Z,21.82
2017-07-11T07:29:58.990Z,21.85
2017-07-11T07:30:39.570Z,21.92
2017-07-11T07:31:20.158Z,21.96
2017-07-11T07:32:00.775Z,21.96
2017-07-11T07:32:41.371Z,22.11
2017-07-11T07:33:22.014Z,22.15
2017-07-11T07:34:02.610Z,22.15
2017-07-11T07:34:43.261Z,22.29
2017-07-11T07:35:23.883Z,22.29
2017-07-11T07:36:04.452Z,22.3
2017-07-11T07:36:45.038Z,22.38
2017-07-11T07:37:25.607Z,22.48
2017-07-11T07:38:06.235Z,22.48
2017-07-11T07:38:46.824Z,22.45
2017-07-11T07:39:27.399Z,22.41
2017-07-11T07:40:07.989Z,22.5
2017-07-11T07:40:48.555Z,22.51
2017-07-11T07:41:29.151Z,22.59
2017-07-11T07:42:09.859Z,22.62
2017-07-11T07:42:50.445Z,22.66
2017-07-11T07:43:31.074Z,22.62
2017-07-11T07:44:11.670Z,22.81
2017-07-11T07:44:52.262Z,22.8
2017-07-11T07:45:32.842Z,22.85
2017-07-11T07:46:13.480Z,22.94
2017-07-11T07:46:54.085Z,23.09
2017-07-11T07:47:34.712Z,23.09
2017-07-11T07:48:15.306Z,23.2
2017-07-11T07:48:55.873Z,23.12
2017-07-11T07:49:36.446Z,23.31
2017-07-11T07:50:17.059Z,23.23
2017-07-11T07:50:57.713Z,23.21
2017-07-11T07:51:38.306Z,23.18
2017-07-11T07:52:18.924Z,23.03
2017-07-11T07:52:59.527Z,23.02
2017-07-11T07:53:40.137Z,22.98
2017-07-11T07:54:20.716Z,22.87
2017-07-11T07:55:01.295Z,22.88
2017-07-11T07:55:41.878Z,22.88
2017-07-11T07:56:22.467Z,22.88
2017-07-11T07:57:03.052Z,22.94
2017-07-11T07:57:43.634Z,22.99
2017-07-11T07:58:24.196Z,22.99
2017-07-11T07:59:04.793Z,23.05
2017-07-11T07:59:45.384Z,23.08
2017-07-11T08:00:25.979Z,23.09
2017-07-11T08:01:06.580Z,23.13
2017-07-11T08:01:47.172Z,23.09
2017-07-11T08:02:27.776Z,23.1
2017-07-11T08:03:08.353Z,23.08
2017-07-11T08:03:48.935Z,23.09
2017-07-11T08:04:29.519Z,23.15
2017-07-11T08:05:10.091Z,23.15
2017-07-11T08:05:50.686Z,23.21
2017-07-11T08:06:31.289Z,23.2
2017-07-11T08:07:11.889Z,23.28
2017-07-11T08:07:52.501Z,23.39
2017-07-11T08:08:33.143Z,23.37
2017-07-11T08:09:13.709Z,23.36
2017-07-11T08:09:54.302Z,23.43
2017-07-11T08:10:34.895Z,23.48
2017-07-11T08:11:15.468Z,23.62
2017-07-11T08:11:56.093Z,23.59
2017-07-11T08:12:36.681Z,23.63
2017-07-11T08:13:17.285Z,23.62
2017-07-11T08:13:57.904Z,23.66
2017-07-11T08:14:38.524Z,23.76
2017-07-11T08:15:19.132Z,23.78
2017-07-11T08:15:59.728Z,23.8
2017-07-11T08:16:40.323Z,23.84
2017-07-11T08:17:20.909Z,23.86
2017-07-11T08:18:01.493Z,23.84
2017-07-11T08:18:42.066Z,23.87
2017-07-11T08:19:22.657Z,23.84
2017-07-11T08:20:03.245Z,23.88
2017-07-11T08:20:43.834Z,23.8
2017-07-11T08:21:24.420Z,23.83
2017-07-11T08:22:05.007Z,23.81
2017-07-11T08:22:45.595Z,23.78
2017-07-11T08:23:26.230Z,23.69
2017-07-11T08:24:06.810Z,23.66
2017-07-11T08:24:47.388Z,23.69
2017-07-11T08:25:27.968Z,23.59
2017-07-11T08:26:08.559Z,23.61
2017-07-11T08:26:49.159Z,23.61
2017-07-11T08:27:29.731Z,23.48
2017-07-11T08:28:10.314Z,23.58
2017-07-11T08:28:50.916Z,23.48
2017-07-11T08:29:31.484Z,23.4
2017-07-11T08:30:12.593Z,23.47
2017-07-11T08:30:53.158Z,23.48
2017-07-11T08:31:33.725Z,23.5
2017-07-11T08:32:14.317Z,23.51
2017-07-11T08:32:54.890Z,23.55
2017-07-11T08:33:35.462Z,23.5
2017-07-11T08:34:16.033Z,23.43
2017-07-11T08:34:56.643Z,23.54
2017-07-11T08:35:37.223Z,23.46
2017-07-11T08:36:17.803Z,23.4
2017-07-11T08:36:58.372Z,23.44
2017-07-11T08:37:38.948Z,23.36
2017-07-11T08:38:19.528Z,23.46
2017-07-11T08:39:00.102Z,23.43
2017-07-11T08:39:40.689Z,23.37
2017-07-11T08:40:21.287Z,23.44
2017-07-11T08:41:01.925Z,23.36
2017-07-11T08:41:42.501Z,23.46
2017-07-11T08:42:23.077Z,23.46
2017-07-11T08:43:03.666Z,23.5
2017-07-11T08:43:44.259Z,23.4
2017-07-11T08:44:24.859Z,23.4
2017-07-11T08:45:05.492Z,23.44
2017-07-11T08:45:46.064Z,23.5
2017-07-11T08:46:26.643Z,23.43